Terminal Aerodrome Forecast
Issued by NWS

Home | Current Version | Previous Version | Text Only | Print | Product List | Glossary On
Versions: 1 2 3 4 5 6 7 8 9 10 11 12 13 14 15
272
FTUS43 KDVN 231735
TAFCID
TAF
KCID 231735Z 2318/2418 16016G21KT P6SM VCSH OVC020
     FM232100 14015G20KT P6SM OVC025
     FM240000 14013KT P6SM VCSH BKN040 WS019/20048KT
     FM240500 16012KT P6SM BKN040 WS019/22050KT
     FM241300 19012KT P6SM BKN040 WS020/24040KT=

USA.gov is the U.S. government's official web portal to all federal, state and local government web resources and services.